sensor_id;sensor_type;location;lat;lon;timestamp;pressure;altitude;pressure_sealevel;temperature;humidity
65054;BME280;51639;47.828;35.038;2023-01-24T00:02:28;101880.03;;;3.57;100.00
65054;BME280;51639;47.828;35.038;2023-01-24T00:17:30;101863.22;;;3.48;100.00
65054;BME280;51639;47.828;35.038;2023-01-24T00:32:32;101867.41;;;3.37;100.00
65054;BME280;51639;47.828;35.038;2023-01-24T00:47:34;101861.88;;;3.33;100.00
65054;BME280;51639;47.828;35.038;2023-01-24T01:02:36;101877.34;;;3.36;100.00
65054;BME280;51639;47.828;35.038;2023-01-24T01:17:38;101882.31;;;3.26;100.00
65054;BME280;51639;47.828;35.038;2023-01-24T01:32:40;101899.34;;;3.30;100.00
65054;BME280;51639;47.828;35.038;2023-01-24T01:47:42;101898.31;;;3.43;100.00
65054;BME280;51639;47.828;35.038;2023-01-24T02:02:53;101921.00;;;3.54;100.00
65054;BME280;51639;47.828;35.038;2023-01-24T02:17:56;101921.25;;;3.61;100.00
65054;BME280;51639;47.828;35.038;2023-01-24T06:36:55;102036.97;;;1.32;100.00
65054;BME280;51639;47.828;35.038;2023-01-24T06:52:00;102034.16;;;0.53;100.00
65054;BME280;51639;47.828;35.038;2023-01-24T07:07:03;101999.16;;;0.18;100.00
65054;BME280;51639;47.828;35.038;2023-01-24T07:22:11;101992.03;;;0.14;100.00
65054;BME280;51639;47.828;35.038;2023-01-24T07:37:13;102000.59;;;0.24;100.00
65054;BME280;51639;47.828;35.038;2023-01-24T07:52:16;101995.75;;;0.71;100.00
65054;BME280;51639;47.828;35.038;2023-01-24T08:07:18;101987.34;;;0.86;100.00
65054;BME280;51639;47.828;35.038;2023-01-24T08:22:29;101999.59;;;1.18;100.00
65054;BME280;51639;47.828;35.038;2023-01-24T08:37:32;101996.66;;;1.77;100.00
65054;BME280;51639;47.828;35.038;2023-01-24T08:52:34;101985.66;;;1.87;100.00
65054;BME280;51639;47.828;35.038;2023-01-24T09:07:36;101987.69;;;1.90;100.00
65054;BME280;51639;47.828;35.038;2023-01-24T09:22:38;101965.91;;;1.65;100.00
65054;BME280;51639;47.828;35.038;2023-01-24T09:37:41;101968.16;;;1.81;100.00
65054;BME280;51639;47.828;35.038;2023-01-24T09:52:47;101964.03;;;1.92;100.00
65054;BME280;51639;47.828;35.038;2023-01-24T14:45:24;101834.66;;;2.17;100.00
65054;BME280;51639;47.828;35.038;2023-01-24T15:00:26;101833.59;;;2.01;100.00
65054;BME280;51639;47.828;35.038;2023-01-24T15:15:28;101846.81;;;2.06;100.00
65054;BME280;51639;47.828;35.038;2023-01-24T15:30:31;101859.03;;;2.42;100.00
65054;BME280;51639;47.828;35.038;2023-01-24T15:45:36;101872.59;;;2.36;100.00
65054;BME280;51639;47.828;35.038;2023-01-24T16:00:39;101882.09;;;2.34;100.00
65054;BME280;51639;47.828;35.038;2023-01-24T16:15:41;101902.72;;;2.33;100.00
65054;BME280;51639;47.828;35.038;2023-01-24T16:30:43;101918.34;;;2.14;100.00
65054;BME280;51639;47.828;35.038;2023-01-24T16:45:47;101942.00;;;2.12;100.00
65054;BME280;51639;47.828;35.038;2023-01-24T17:00:49;101943.56;;;1.96;100.00
65054;BME280;51639;47.828;35.038;2023-01-24T17:15:51;101935.63;;;1.39;100.00
65054;BME280;51639;47.828;35.038;2023-01-24T17:30:53;101957.38;;;1.46;100.00
65054;BME280;51639;47.828;35.038;2023-01-24T17:45:58;101961.06;;;1.85;100.00
65054;BME280;51639;47.828;35.038;2023-01-24T18:01:01;101957.09;;;1.74;100.00
65054;BME280;51639;47.828;35.038;2023-01-24T18:16:05;101950.94;;;1.56;100.00
65054;BME280;51639;47.828;35.038;2023-01-24T18:31:09;101941.66;;;1.70;100.00
65054;BME280;51639;47.828;35.038;2023-01-24T18:46:13;101926.56;;;1.92;100.00
65054;BME280;51639;47.828;35.038;2023-01-24T19:01:18;101932.22;;;1.90;100.00
65054;BME280;51639;47.828;35.038;2023-01-24T19:16:19;101927.00;;;1.68;100.00
65054;BME280;51639;47.828;35.038;2023-01-24T19:31:22;101916.16;;;1.64;100.00
65054;BME280;51639;47.828;35.038;2023-01-24T19:46:24;101930.78;;;1.67;100.00
65054;BME280;51639;47.828;35.038;2023-01-24T20:01:26;101917.72;;;1.65;100.00
65054;BME280;51639;47.828;35.038;2023-01-24T20:16:29;101924.19;;;1.82;100.00
65054;BME280;51639;47.828;35.038;2023-01-24T20:31:31;101917.41;;;1.76;100.00
65054;BME280;51639;47.828;35.038;2023-01-24T20:46:34;101907.94;;;1.69;100.00
65054;BME280;51639;47.828;35.038;2023-01-24T21:01:36;101914.25;;;1.56;100.00
65054;BME280;51639;47.828;35.038;2023-01-24T21:16:38;101907.31;;;1.55;100.00
65054;BME280;51639;47.828;35.038;2023-01-24T21:31:41;101905.72;;;1.37;100.00
65054;BME280;51639;47.828;35.038;2023-01-24T21:46:43;101898.00;;;1.44;100.00
65054;BME280;51639;47.828;35.038;2023-01-24T22:01:51;101890.81;;;1.62;100.00
